Blissfield, Ohio
Current Conditions -  °F | °C
As of 1:55 PM on Thursday 30 Oct 2014 (Local Time) from K4I3 Reporting Station
Haze Haze  
Wind Chill: 46°   Ceiling: 3700
Heat Index: 46°   Visibility: 4mi
Dew Point: 36°   Wind: 0mph
Humidity: 66%   Direction: NA
Pressure: 30.1"   Gusts: NA
Location:  40.4°N, 81.97°W
Report Text: K4I3 301755Z AUTO 00000KT 4SM HZ OVC037 08/02 A3010 RMK AO2
Loading
Personal Weather Stations






























Interactive Weather Map
Tropical Storm Tracking
New forecast layout! Learn more

10-Day Weather Forecast

Advertisements
Track Severe Weather on mobile